createdAt,value
2022-09-14T00:02:27.570Z,5.97
2022-09-14T00:04:56.509Z,6.82
2022-09-14T00:07:26.737Z,6.43
2022-09-14T00:09:56.351Z,5.90
2022-09-14T00:12:24.914Z,5.55
2022-09-14T00:14:53.791Z,5.35
2022-09-14T00:17:22.112Z,5.25
2022-09-14T00:19:51.121Z,5.15
2022-09-14T00:22:19.477Z,5.20
2022-09-14T00:24:49.928Z,5.57
2022-09-14T00:27:18.316Z,4.80
2022-09-14T00:29:48.537Z,5.20
2022-09-14T00:32:17.777Z,5.53
2022-09-14T00:34:46.168Z,6.03
2022-09-14T00:37:14.487Z,6.05
2022-09-14T00:39:43.586Z,5.88
2022-09-14T00:42:19.774Z,6.10
2022-09-14T00:45:03.883Z,5.00
2022-09-14T00:47:34.182Z,4.28
2022-09-14T00:50:05.269Z,4.90
2022-09-14T00:52:36.192Z,5.20
2022-09-14T00:55:09.471Z,5.53
2022-09-14T00:57:42.434Z,5.43
2022-09-14T01:00:13.944Z,5.03
2022-09-14T01:02:43.473Z,4.80
2022-09-14T01:05:13.161Z,5.68
2022-09-14T01:07:53.793Z,5.65
2022-09-14T01:10:32.555Z,4.95
2022-09-14T01:13:16.102Z,5.30
2022-09-14T01:15:57.254Z,5.55
2022-09-14T01:18:31.098Z,5.90
2022-09-14T01:21:05.093Z,5.68
2022-09-14T01:23:43.648Z,6.57
2022-09-14T01:26:38.536Z,5.80
2022-09-14T01:29:14.490Z,6.20
2022-09-14T01:31:50.175Z,6.50
2022-09-14T01:34:27.156Z,5.53
2022-09-14T01:37:00.127Z,5.80
2022-09-14T01:39:32.975Z,8.10
2022-09-14T01:42:02.487Z,8.40
2022-09-14T01:44:37.233Z,6.43
2022-09-14T01:47:13.008Z,5.88
2022-09-14T01:49:45.547Z,5.28
2022-09-14T01:52:17.238Z,5.28
2022-09-14T01:54:51.477Z,5.18
2022-09-14T01:57:24.333Z,5.57
2022-09-14T01:59:58.991Z,5.45
2022-09-14T02:02:32.442Z,5.95
2022-09-14T02:05:07.606Z,5.80
2022-09-14T02:07:37.958Z,5.18
2022-09-14T02:10:10.841Z,5.18
2022-09-14T02:12:40.356Z,5.68
2022-09-14T02:15:12.439Z,4.90
2022-09-14T02:17:41.839Z,5.65
2022-09-14T02:20:15.715Z,6.22
2022-09-14T02:22:44.448Z,6.13
2022-09-14T02:25:13.758Z,5.90
2022-09-14T02:27:42.075Z,5.80
2022-09-14T02:30:16.866Z,6.18
2022-09-14T02:32:56.815Z,7.13
2022-09-14T02:35:33.760Z,5.88
2022-09-14T02:38:09.567Z,8.50
2022-09-14T02:40:43.395Z,8.32
2022-09-14T02:43:25.295Z,9.48
2022-09-14T02:46:02.601Z,8.57
2022-09-14T02:48:39.950Z,10.30
2022-09-14T02:51:19.410Z,10.68
2022-09-14T02:53:55.240Z,9.32
2022-09-14T02:56:23.985Z,10.05
2022-09-14T02:58:52.783Z,8.88
2022-09-14T03:01:24.123Z,9.63
2022-09-14T03:03:52.521Z,9.13
2022-09-14T03:06:22.138Z,8.27
2022-09-14T03:08:50.975Z,8.93
2022-09-14T03:11:19.976Z,10.25
2022-09-14T03:13:49.048Z,9.82
2022-09-14T03:16:19.179Z,11.38
2022-09-14T03:18:49.913Z,9.88
2022-09-14T03:21:19.581Z,9.52
2022-09-14T03:23:50.341Z,8.85
2022-09-14T03:26:21.231Z,8.65
2022-09-14T03:28:52.646Z,8.85
2022-09-14T03:31:21.745Z,8.90
2022-09-14T03:33:55.634Z,10.20
2022-09-14T03:36:25.335Z,10.75
2022-09-14T03:38:56.145Z,11.02
2022-09-14T03:41:25.676Z,10.00
2022-09-14T03:43:54.520Z,12.20
2022-09-14T03:46:24.638Z,9.15
2022-09-14T03:48:56.007Z,8.65
2022-09-14T03:51:24.795Z,9.13
2022-09-14T03:53:54.108Z,8.20
2022-09-14T03:56:24.178Z,8.38
2022-09-14T03:58:53.422Z,8.55
2022-09-14T04:01:23.563Z,9.68
2022-09-14T04:03:54.339Z,10.95
2022-09-14T04:06:22.663Z,9.80
2022-09-14T04:08:51.362Z,13.82
2022-09-14T04:11:22.386Z,12.02
2022-09-14T04:13:51.550Z,10.38
2022-09-14T04:16:22.228Z,13.85
2022-09-14T04:18:51.162Z,14.75
2022-09-14T04:21:22.867Z,13.10
2022-09-14T04:26:43.049Z,11.68
2022-09-14T04:29:13.211Z,10.90
2022-09-14T04:31:41.830Z,11.20
2022-09-14T04:34:13.771Z,11.35
2022-09-14T04:36:43.646Z,12.82
2022-09-14T04:39:15.111Z,14.50
2022-09-14T04:41:43.459Z,13.40
2022-09-14T04:44:12.670Z,16.80
2022-09-14T04:46:46.270Z,14.93
2022-09-14T04:49:16.650Z,16.75
2022-09-14T04:51:46.726Z,14.98
2022-09-14T04:54:17.110Z,14.63
2022-09-14T04:56:46.311Z,13.00
2022-09-14T04:59:16.755Z,12.50
2022-09-14T05:01:47.543Z,13.35
2022-09-14T05:04:17.595Z,15.00
2022-09-14T05:06:47.400Z,11.68
2022-09-14T05:09:18.571Z,13.18
2022-09-14T05:11:47.686Z,11.32
2022-09-14T05:14:16.367Z,13.25
2022-09-14T05:16:45.750Z,11.55
2022-09-14T05:19:15.899Z,15.88
2022-09-14T05:21:45.103Z,13.23
2022-09-14T05:24:16.695Z,16.48
2022-09-14T05:26:46.902Z,13.90
2022-09-14T05:29:17.318Z,11.93
2022-09-14T05:31:46.303Z,12.05
2022-09-14T05:34:15.558Z,10.48
2022-09-14T05:36:43.883Z,10.43
2022-09-14T05:39:12.576Z,12.40
2022-09-14T05:41:42.867Z,13.45
2022-09-14T05:44:11.144Z,16.00
2022-09-14T05:46:40.306Z,12.80
2022-09-14T05:49:08.831Z,14.65
2022-09-14T05:51:38.242Z,14.35
2022-09-14T05:54:11.424Z,12.93
2022-09-14T05:56:40.040Z,16.95
2022-09-14T05:59:10.774Z,15.50
2022-09-14T06:01:39.782Z,15.95
2022-09-14T06:04:08.144Z,16.10
2022-09-14T06:06:36.892Z,16.92
2022-09-14T06:09:06.264Z,14.45
2022-09-14T06:11:37.665Z,15.40
2022-09-14T06:14:06.709Z,16.30
2022-09-14T06:16:36.927Z,14.25
2022-09-14T06:19:05.807Z,14.27
2022-09-14T06:21:35.749Z,13.73
2022-09-14T06:24:05.095Z,16.35
2022-09-14T06:26:33.491Z,14.50
2022-09-14T06:29:02.327Z,16.83
2022-09-14T06:31:30.668Z,16.20
2022-09-14T06:34:00.376Z,16.08
2022-09-14T06:36:29.787Z,16.58
2022-09-14T06:39:00.278Z,15.90
2022-09-14T06:41:30.622Z,17.25
2022-09-14T06:44:01.581Z,15.73
2022-09-14T06:46:32.543Z,15.35
2022-09-14T06:49:04.915Z,12.55
2022-09-14T06:51:37.444Z,12.90
2022-09-14T06:54:07.030Z,12.18
2022-09-14T06:56:36.943Z,10.65
2022-09-14T06:59:07.149Z,10.00
2022-09-14T07:01:35.787Z,10.32
2022-09-14T07:04:06.919Z,9.50
2022-09-14T07:06:40.726Z,9.05
2022-09-14T07:09:09.698Z,9.93
2022-09-14T07:11:38.453Z,9.38
2022-09-14T07:14:08.192Z,8.68
2022-09-14T07:16:37.975Z,8.02
2022-09-14T07:19:10.868Z,8.05
2022-09-14T07:21:39.461Z,7.72
2022-09-14T07:24:08.662Z,7.47
2022-09-14T07:26:42.062Z,7.63
2022-09-14T07:29:13.579Z,6.38
2022-09-14T07:31:44.221Z,6.45
2022-09-14T07:34:14.618Z,6.30
2022-09-14T07:36:44.082Z,6.47
2022-09-14T07:39:14.006Z,5.85
2022-09-14T07:41:43.710Z,5.55
2022-09-14T07:44:15.779Z,5.50
2022-09-14T07:46:54.038Z,4.40
2022-09-14T07:49:23.170Z,4.15
2022-09-14T07:51:54.014Z,4.10
2022-09-14T07:54:22.321Z,3.90
2022-09-14T07:56:51.632Z,4.40
2022-09-14T07:59:36.784Z,3.97
2022-09-14T08:02:08.439Z,3.63
2022-09-14T08:04:39.201Z,3.20
2022-09-14T08:07:08.459Z,3.13
2022-09-14T08:09:36.851Z,2.95
2022-09-14T08:12:06.103Z,2.90
2022-09-14T08:14:35.162Z,2.90
2022-09-14T08:17:04.140Z,2.75
2022-09-14T08:19:33.735Z,3.08
2022-09-14T08:22:02.868Z,3.70
2022-09-14T08:24:32.237Z,2.70
2022-09-14T08:27:00.527Z,3.05
2022-09-14T08:29:30.003Z,3.10
2022-09-14T08:31:59.040Z,3.00
2022-09-14T08:34:27.624Z,2.45
2022-09-14T08:36:57.720Z,3.00
2022-09-14T08:39:26.545Z,2.65
2022-09-14T08:41:56.661Z,2.78
2022-09-14T08:44:29.116Z,2.65
2022-09-14T08:47:02.743Z,2.33
2022-09-14T08:49:47.953Z,2.58
2022-09-14T08:52:25.016Z,2.20
2022-09-14T08:54:56.211Z,1.95
2022-09-14T08:57:33.926Z,2.22
2022-09-14T09:00:10.515Z,2.10
2022-09-14T09:03:04.243Z,2.30
2022-09-14T09:05:41.534Z,1.85
2022-09-14T09:08:18.299Z,2.38
2022-09-14T09:10:49.136Z,2.22
2022-09-14T09:13:21.718Z,1.90
2022-09-14T09:15:52.849Z,2.15
2022-09-14T09:18:26.820Z,2.00
2022-09-14T09:21:00.696Z,2.28
2022-09-14T09:23:33.223Z,2.25
2022-09-14T09:26:04.912Z,2.40
2022-09-14T09:28:35.152Z,2.20
2022-09-14T09:31:12.634Z,2.10
2022-09-14T09:34:15.205Z,2.20
2022-09-14T09:36:48.328Z,1.98
2022-09-14T09:39:18.260Z,1.90
2022-09-14T09:41:50.377Z,1.80
2022-09-14T09:44:19.041Z,1.90
2022-09-14T09:46:51.347Z,2.05
2022-09-14T09:49:24.551Z,2.17
2022-09-14T09:51:54.365Z,2.00
2022-09-14T09:54:29.124Z,2.00
2022-09-14T09:57:00.864Z,2.08
2022-09-14T09:59:35.210Z,1.85
2022-09-14T10:02:24.482Z,1.95
2022-09-14T10:05:02.078Z,1.77
2022-09-14T10:07:32.175Z,2.00
2022-09-14T10:10:07.189Z,2.03
2022-09-14T10:12:37.977Z,2.28
2022-09-14T10:15:16.901Z,1.67
2022-09-14T10:17:56.912Z,1.80
2022-09-14T10:20:26.686Z,2.13
2022-09-14T10:22:55.231Z,1.80
2022-09-14T10:25:27.938Z,1.85
2022-09-14T10:28:01.647Z,1.85
2022-09-14T10:30:35.918Z,1.83
2022-09-14T10:33:07.432Z,1.75
2022-09-14T10:35:46.438Z,1.50
2022-09-14T10:38:30.938Z,2.15
2022-09-14T10:41:10.338Z,1.70
2022-09-14T10:43:57.262Z,1.70
2022-09-14T10:46:31.535Z,1.88
2022-09-14T10:49:17.455Z,2.15
2022-09-14T10:51:56.008Z,1.70
2022-09-14T10:54:47.864Z,2.03
2022-09-14T10:57:27.416Z,1.88
2022-09-14T11:00:00.923Z,1.70
2022-09-14T11:02:59.864Z,1.98
2022-09-14T11:05:32.239Z,1.70
2022-09-14T11:08:11.238Z,1.83
2022-09-14T11:10:51.409Z,2.53
2022-09-14T11:13:42.430Z,1.92
2022-09-14T11:16:27.699Z,1.90
2022-09-14T11:19:05.583Z,1.90
2022-09-14T11:21:45.027Z,1.83
2022-09-14T11:24:20.890Z,2.10
2022-09-14T11:26:59.719Z,1.77
2022-09-14T11:29:34.343Z,1.98
2022-09-14T11:32:20.746Z,2.25
2022-09-14T11:34:55.002Z,1.90
2022-09-14T11:37:32.419Z,1.90
2022-09-14T11:40:08.102Z,1.98
2022-09-14T11:42:44.344Z,1.83
2022-09-14T11:45:22.070Z,1.83
2022-09-14T11:47:58.679Z,1.60
2022-09-14T11:50:31.566Z,1.67
2022-09-14T11:53:05.681Z,2.05
2022-09-14T11:55:35.254Z,2.17
2022-09-14T11:58:07.671Z,2.30
2022-09-14T12:01:01.759Z,2.00
2022-09-14T12:03:56.150Z,1.83
2022-09-14T12:06:57.740Z,2.35
2022-09-14T12:09:42.793Z,1.75
2022-09-14T12:12:36.838Z,2.05
2022-09-14T12:15:16.147Z,2.72
2022-09-14T12:17:46.326Z,1.90
2022-09-14T12:20:32.502Z,1.60
2022-09-14T12:23:27.156Z,1.67
2022-09-14T12:26:13.131Z,2.25
2022-09-14T12:28:48.658Z,2.08
2022-09-14T12:32:01.790Z,2.10
2022-09-14T12:34:33.668Z,1.70
2022-09-14T12:37:31.191Z,1.90
2022-09-14T12:40:37.225Z,1.60
2022-09-14T12:43:51.094Z,1.63
2022-09-14T12:46:38.601Z,1.90
2022-09-14T12:49:28.594Z,1.85
2022-09-14T12:52:04.043Z,1.80
2022-09-14T12:54:50.565Z,1.88
2022-09-14T12:57:34.987Z,1.90
2022-09-14T13:00:12.701Z,1.90
2022-09-14T13:03:07.048Z,1.90
2022-09-14T13:05:36.075Z,2.05
2022-09-14T13:08:12.583Z,1.92
2022-09-14T13:10:46.897Z,1.75
2022-09-14T13:13:20.094Z,1.65
2022-09-14T13:15:53.813Z,1.90
2022-09-14T13:18:34.922Z,2.03
2022-09-14T13:21:18.036Z,2.10
2022-09-14T13:23:48.505Z,2.20
2022-09-14T13:26:22.855Z,2.08
2022-09-14T13:28:54.413Z,1.75
2022-09-14T13:31:31.661Z,1.90
2022-09-14T13:34:01.500Z,1.70
2022-09-14T13:36:32.786Z,1.80
2022-09-14T13:39:04.438Z,1.50
2022-09-14T13:41:34.425Z,2.20
2022-09-14T13:44:03.011Z,2.05
2022-09-14T13:46:31.828Z,2.17
2022-09-14T13:49:00.671Z,1.80
2022-09-14T13:51:31.807Z,1.80
2022-09-14T13:54:19.826Z,2.33
2022-09-14T13:57:16.603Z,2.10
2022-09-14T14:00:19.956Z,1.88
2022-09-14T14:02:51.446Z,2.03
2022-09-14T14:05:28.674Z,1.90
2022-09-14T14:07:59.331Z,1.60
2022-09-14T14:10:32.896Z,1.98
2022-09-14T14:13:02.724Z,2.05
2022-09-14T14:15:38.329Z,2.13
2022-09-14T14:18:32.812Z,1.90
2022-09-14T14:21:15.898Z,1.92
2022-09-14T14:24:09.264Z,2.00
2022-09-14T14:26:34.788Z,1.80
2022-09-14T14:29:09.702Z,1.92
2022-09-14T14:31:38.800Z,1.90
2022-09-14T14:34:17.922Z,2.28
2022-09-14T14:36:48.015Z,2.20
2022-09-14T14:39:16.620Z,2.28
2022-09-14T14:41:47.831Z,2.28
2022-09-14T14:44:19.842Z,2.10
2022-09-14T14:46:48.709Z,1.80
2022-09-14T14:49:20.571Z,1.95
2022-09-14T14:51:49.562Z,2.10
2022-09-14T14:54:18.750Z,2.10
2022-09-14T14:56:50.627Z,2.03
2022-09-14T14:59:31.403Z,2.13
2022-09-14T15:01:59.955Z,2.00
2022-09-14T15:04:29.073Z,2.25
2022-09-14T15:06:57.409Z,1.75
2022-09-14T15:09:29.505Z,2.10
2022-09-14T15:11:59.625Z,2.50
2022-09-14T15:14:28.054Z,2.70
2022-09-14T15:17:00.490Z,1.77
2022-09-14T15:19:30.328Z,1.33
2022-09-14T15:22:01.601Z,1.48
2022-09-14T15:24:30.422Z,1.40
2022-09-14T15:27:00.281Z,1.50
2022-09-14T15:29:30.260Z,1.10
2022-09-14T15:31:58.713Z,1.45
2022-09-14T15:34:27.139Z,1.20
2022-09-14T15:36:57.418Z,1.50
2022-09-14T15:39:28.103Z,1.05
2022-09-14T15:41:57.724Z,1.30
2022-09-14T15:44:27.394Z,0.88
2022-09-14T15:46:57.446Z,0.80
2022-09-14T15:49:26.829Z,0.80
2022-09-14T15:51:57.510Z,0.80
2022-09-14T15:54:26.757Z,1.35
2022-09-14T15:56:59.340Z,1.23
2022-09-14T15:59:29.541Z,0.95
2022-09-14T16:01:58.156Z,1.00
2022-09-14T16:04:27.947Z,1.30
2022-09-14T16:06:56.228Z,1.35
2022-09-14T16:09:25.479Z,0.98
2022-09-14T16:11:57.152Z,1.30
2022-09-14T16:14:29.356Z,1.15
2022-09-14T16:16:58.990Z,0.90
2022-09-14T16:19:28.207Z,1.15
2022-09-14T16:21:57.498Z,1.40
2022-09-14T16:24:26.657Z,1.30
2022-09-14T16:26:58.490Z,1.15
2022-09-14T16:29:27.779Z,1.77
2022-09-14T16:31:57.491Z,1.40
2022-09-14T16:34:29.004Z,1.38
2022-09-14T16:36:58.656Z,1.30
2022-09-14T16:39:30.916Z,1.35
2022-09-14T16:41:59.976Z,1.08
2022-09-14T16:44:29.417Z,1.50
2022-09-14T16:46:59.769Z,1.40
2022-09-14T16:49:28.709Z,1.10
2022-09-14T16:52:00.983Z,1.20
2022-09-14T16:54:31.970Z,1.70
2022-09-14T16:57:01.282Z,5.15
2022-09-14T16:59:30.001Z,1.88
2022-09-14T17:02:00.255Z,2.03
2022-09-14T17:04:28.987Z,1.75
2022-09-14T17:06:57.312Z,1.35
2022-09-14T17:09:28.981Z,1.30
2022-09-14T17:11:59.177Z,1.50
2022-09-14T17:14:29.618Z,1.20
2022-09-14T17:17:00.586Z,1.40
2022-09-14T17:19:30.640Z,1.15
2022-09-14T17:21:59.350Z,1.10
2022-09-14T17:24:27.639Z,1.75
2022-09-14T17:26:56.464Z,1.27
2022-09-14T17:29:25.433Z,1.35
2022-09-14T17:31:55.824Z,1.30
2022-09-14T17:34:26.119Z,1.40
2022-09-14T17:36:54.439Z,1.50
2022-09-14T17:39:23.419Z,1.23
2022-09-14T17:41:52.267Z,1.30
2022-09-14T17:44:21.271Z,1.42
2022-09-14T17:46:53.019Z,1.20
2022-09-14T17:49:22.865Z,1.38
2022-09-14T17:51:53.038Z,1.58
2022-09-14T17:54:21.939Z,1.35
2022-09-14T17:56:50.398Z,1.50
2022-09-14T17:59:20.954Z,1.98
2022-09-14T18:01:49.715Z,3.95
2022-09-14T18:04:18.814Z,3.20
2022-09-14T18:06:49.809Z,2.17
2022-09-14T18:09:22.381Z,2.13
2022-09-14T18:11:51.529Z,1.90
2022-09-14T18:14:20.747Z,2.58
2022-09-14T18:16:49.213Z,2.10
2022-09-14T18:19:17.870Z,1.90
2022-09-14T18:21:51.545Z,1.52
2022-09-14T18:24:21.849Z,1.85
2022-09-14T18:26:50.405Z,1.85
2022-09-14T18:29:23.379Z,1.70
2022-09-14T18:31:52.202Z,1.70
2022-09-14T18:34:21.578Z,1.90
2022-09-14T18:36:52.307Z,1.90
2022-09-14T18:39:22.392Z,2.10
2022-09-14T18:41:52.616Z,1.88
2022-09-14T18:44:21.059Z,2.13
2022-09-14T18:46:51.606Z,1.90
2022-09-14T18:49:21.302Z,1.92
2022-09-14T18:51:50.179Z,3.00
2022-09-14T18:54:19.047Z,1.88
2022-09-14T18:56:50.502Z,12.70
2022-09-14T18:59:18.776Z,2.67
2022-09-14T19:01:48.108Z,2.67
2022-09-14T19:04:16.549Z,3.10
2022-09-14T19:06:45.148Z,2.10
2022-09-14T19:09:13.573Z,3.03
2022-09-14T19:11:42.132Z,3.03
2022-09-14T19:14:13.846Z,2.22
2022-09-14T19:16:43.358Z,1.85
2022-09-14T19:19:14.131Z,2.40
2022-09-14T19:21:43.543Z,2.28
2022-09-14T19:24:14.467Z,2.33
2022-09-14T19:26:45.576Z,2.20
2022-09-14T19:29:20.392Z,2.25
2022-09-14T19:31:51.537Z,2.00
2022-09-14T19:34:22.027Z,2.25
2022-09-14T19:36:51.446Z,2.10
2022-09-14T19:39:19.836Z,2.05
2022-09-14T19:41:50.184Z,2.20
2022-09-14T19:44:20.359Z,1.85
2022-09-14T19:46:49.088Z,2.30
2022-09-14T19:49:20.731Z,2.22
2022-09-14T19:51:50.138Z,2.47
2022-09-14T19:54:18.845Z,2.05
2022-09-14T19:56:48.397Z,2.30
2022-09-14T19:59:17.362Z,2.20
2022-09-14T20:01:47.902Z,2.58
2022-09-14T20:04:19.614Z,2.22
2022-09-14T20:06:48.666Z,2.30
2022-09-14T20:09:20.325Z,2.20
2022-09-14T20:11:51.679Z,2.20
2022-09-14T20:14:22.151Z,2.38
2022-09-14T20:16:54.799Z,2.05
2022-09-14T20:19:24.493Z,2.63
2022-09-14T20:21:54.174Z,2.10
2022-09-14T20:24:28.103Z,2.30
2022-09-14T20:27:00.157Z,2.15
2022-09-14T20:29:31.003Z,2.40
2022-09-14T20:32:01.262Z,2.22
2022-09-14T20:34:30.213Z,2.65
2022-09-14T20:37:01.381Z,2.53
2022-09-14T20:39:30.505Z,3.03
2022-09-14T20:41:59.628Z,2.50
2022-09-14T20:44:28.309Z,2.40
2022-09-14T20:46:57.026Z,2.45
2022-09-14T20:49:27.045Z,2.22
2022-09-14T20:51:57.274Z,2.50
2022-09-14T20:54:26.844Z,2.58
2022-09-14T20:56:55.133Z,3.10
2022-09-14T20:59:25.664Z,3.10
2022-09-14T21:01:54.223Z,2.28
2022-09-14T21:04:24.870Z,2.10
2022-09-14T21:06:56.698Z,2.90
2022-09-14T21:09:26.920Z,2.40
2022-09-14T21:11:55.330Z,2.67
2022-09-14T21:14:24.466Z,2.00
2022-09-14T21:16:55.651Z,2.42
2022-09-14T21:19:27.301Z,1.90
2022-09-14T21:21:57.642Z,1.60
2022-09-14T21:24:26.431Z,2.30
2022-09-14T21:26:56.565Z,2.13
2022-09-14T21:29:25.525Z,2.30
2022-09-14T21:31:54.644Z,2.40
2022-09-14T21:34:23.595Z,1.85
2022-09-14T21:36:52.782Z,2.55
2022-09-14T21:39:24.653Z,2.00
2022-09-14T21:41:58.678Z,1.90
2022-09-14T21:44:31.279Z,2.25
2022-09-14T21:47:00.295Z,2.35
2022-09-14T21:49:29.214Z,2.15
2022-09-14T21:51:57.631Z,2.53
2022-09-14T21:54:27.898Z,2.42
2022-09-14T21:56:57.126Z,2.35
2022-09-14T21:59:25.752Z,2.17
2022-09-14T22:01:55.045Z,2.45
2022-09-14T22:04:24.718Z,2.47
2022-09-14T22:06:53.965Z,2.38
2022-09-14T22:09:28.212Z,3.17
2022-09-14T22:11:58.828Z,2.80
2022-09-14T22:14:29.267Z,2.80
2022-09-14T22:16:58.040Z,2.83
2022-09-14T22:19:28.782Z,3.45
2022-09-14T22:21:58.454Z,3.58
2022-09-14T22:24:33.494Z,3.15
2022-09-14T22:27:08.017Z,3.67
2022-09-14T22:29:36.431Z,4.50
2022-09-14T22:32:12.316Z,4.25
2022-09-14T22:34:41.967Z,4.13
2022-09-14T22:37:10.608Z,3.92
2022-09-14T22:39:39.649Z,4.35
2022-09-14T22:42:09.301Z,3.70
2022-09-14T22:44:38.252Z,3.80
2022-09-14T22:47:06.757Z,4.10
2022-09-14T22:49:35.819Z,3.50
2022-09-14T22:52:04.698Z,3.83
2022-09-14T22:54:32.996Z,3.38
2022-09-14T22:57:01.948Z,3.40
2022-09-14T22:59:31.676Z,3.10
2022-09-14T23:02:00.708Z,3.05
2022-09-14T23:04:29.016Z,2.85
2022-09-14T23:06:57.783Z,2.92
2022-09-14T23:09:26.482Z,3.40
2022-09-14T23:11:55.199Z,3.30
2022-09-14T23:14:24.059Z,3.13
2022-09-14T23:16:54.213Z,3.17
2022-09-14T23:19:22.628Z,3.30
2022-09-14T23:21:51.251Z,3.35
2022-09-14T23:24:19.547Z,3.10
2022-09-14T23:26:48.787Z,3.70
2022-09-14T23:29:18.341Z,3.22
2022-09-14T23:31:47.173Z,3.13
2022-09-14T23:34:16.932Z,3.60
2022-09-14T23:36:45.590Z,3.40
2022-09-14T23:39:14.499Z,3.40
2022-09-14T23:41:43.226Z,3.42
2022-09-14T23:44:14.411Z,3.13
2022-09-14T23:46:43.315Z,3.17
2022-09-14T23:49:13.246Z,3.33
2022-09-14T23:51:43.717Z,3.00
2022-09-14T23:54:12.489Z,2.78
2022-09-14T23:56:41.655Z,2.83
2022-09-14T23:59:12.722Z,3.15
